CYHU/YHU METAR and TAF weather

Enter ICAO airport designator
Station Type Date Time Source
CYHU METAR 2022/01/26 20:00 UTC NOAA

CYHU 262000Z AUTO 00000KT 9SM FEW022 M17/M24 A3046 RMK SLP319


Station Type Date Time Source
CYHU Decoded METAR 2022/01/26 20:00 UTC NOAA

Saint Hubert Airport , Canada (CYHU) 45-31N 073-25W
Jan 26, 2022 - 03:00 PM EST / 2022.01.26 2000 UTC
Wind: Calm:0
Visibility: 9 mile(s):0
Sky conditions: mostly clear
Temperature: 1 F (-17 C)
Dew Point: -11 F (-24 C)
Relative Humidity: 54%
Pressure (altimeter): 30.46 in. Hg (1031 hPa)
ob: CYHU 262000Z AUTO 00000KT 9SM FEW022 M17/M24 A3046 RMK SLP319
cycle: 20

Station Type Date Time Source
CYHU TAF 2022/01/26 18:42 UTC NOAA

TAF TAF CYHU 261740Z 2618/2718 VRB03KT P6SM FEW015
FM270600 15006KT P6SM FEW030
FM270900 14008KT P6SM BKN030
BECMG 2710/2712 17012KT
FM271500 17015KT P6SM FEW030 SCT200
RMK FCST BASED ON AUTO OBS. NXT FCST BY 270000Z

Example: see airport list